createdAt,value
2022-08-16T00:07:02.683Z,83.20
2022-08-16T00:17:15.670Z,82.90
2022-08-16T00:27:21.169Z,83.51
2022-08-16T00:37:25.100Z,84.45
2022-08-16T00:47:49.449Z,84.70
2022-08-16T00:57:59.619Z,84.95
2022-08-16T01:08:34.901Z,84.83
2022-08-16T01:18:39.963Z,85.77
2022-08-16T01:28:44.653Z,88.04
2022-08-16T01:38:53.013Z,89.19
2022-08-16T01:49:04.214Z,87.43
2022-08-16T01:59:07.409Z,87.03
2022-08-16T02:09:19.354Z,87.04
2022-08-16T02:19:22.590Z,87.05
2022-08-16T02:29:25.368Z,86.21
2022-08-16T02:39:33.927Z,85.03
2022-08-16T02:50:52.121Z,83.72
2022-08-16T02:59:58.536Z,84.00
2022-08-16T03:10:01.090Z,83.78
2022-08-16T03:20:04.665Z,83.30
2022-08-16T03:30:17.591Z,83.16
2022-08-16T03:40:31.750Z,82.89
2022-08-16T03:50:35.596Z,82.34
2022-08-16T04:00:41.440Z,81.27
2022-08-16T04:10:43.513Z,79.84
2022-08-16T04:20:45.164Z,78.02
2022-08-16T04:30:50.507Z,76.73
2022-08-16T04:40:52.402Z,75.07
2022-08-16T04:50:56.262Z,73.77
2022-08-16T05:00:58.014Z,73.14
2022-08-16T05:11:01.368Z,71.24
2022-08-16T05:21:09.621Z,69.58
2022-08-16T05:31:13.282Z,69.09
2022-08-16T05:41:16.867Z,68.90
2022-08-16T05:51:38.135Z,67.45
2022-08-16T06:01:41.922Z,67.27
2022-08-16T06:11:44.692Z,64.84
2022-08-16T06:21:54.807Z,62.61
2022-08-16T06:31:57.147Z,61.99
2022-08-16T06:41:59.133Z,62.32
2022-08-16T06:52:03.069Z,62.90
2022-08-16T07:02:05.200Z,63.40
2022-08-16T07:12:46.912Z,65.45
2022-08-16T07:22:52.724Z,66.04
2022-08-16T07:33:00.842Z,65.84
2022-08-16T07:43:03.014Z,65.75
2022-08-16T07:53:04.992Z,66.43
2022-08-16T08:03:07.573Z,67.09
2022-08-16T08:13:12.361Z,67.51
2022-08-16T08:23:15.141Z,67.75
2022-08-16T08:33:16.768Z,68.82
2022-08-16T08:43:18.823Z,67.62
2022-08-16T08:53:20.474Z,67.15
2022-08-16T09:03:32.524Z,65.65
2022-08-16T09:13:34.208Z,66.08
2022-08-16T09:23:37.587Z,66.89
2022-08-16T09:33:39.930Z,70.05
2022-08-16T09:43:59.534Z,71.16
2022-08-16T09:54:02.645Z,71.75
2022-08-16T10:04:13.035Z,73.50
2022-08-16T10:14:33.422Z,72.93
2022-08-16T10:24:35.183Z,72.84
2022-08-16T10:34:39.352Z,72.79
2022-08-16T10:44:42.436Z,72.57
2022-08-16T10:54:59.795Z,74.03
2022-08-16T11:05:08.995Z,75.25
2022-08-16T11:15:12.192Z,77.79
2022-08-16T11:26:07.472Z,76.88
2022-08-16T11:46:44.658Z,75.38
2022-08-16T11:56:39.773Z,75.17
2022-08-16T12:06:46.884Z,74.56
2022-08-16T12:16:55.816Z,74.91
2022-08-16T12:27:00.039Z,74.54
2022-08-16T12:37:04.130Z,75.22
2022-08-16T12:47:27.407Z,76.17
2022-08-16T12:57:36.456Z,76.07
2022-08-16T13:07:45.150Z,76.26
2022-08-16T13:17:53.010Z,77.54
2022-08-16T13:28:01.652Z,77.67
2022-08-16T13:38:25.191Z,77.20
2022-08-16T13:48:37.145Z,76.94
2022-08-16T13:58:54.130Z,75.60
2022-08-16T14:09:06.270Z,76.16
2022-08-16T14:19:08.618Z,75.48
2022-08-16T14:29:11.069Z,74.96
2022-08-16T14:39:13.108Z,75.16
2022-08-16T14:49:14.648Z,73.61
2022-08-16T14:59:16.318Z,73.25
2022-08-16T15:09:19.143Z,72.77
2022-08-16T15:19:24.620Z,73.58
2022-08-16T15:29:29.512Z,75.58
2022-08-16T15:39:39.332Z,75.25
2022-08-16T15:49:45.808Z,76.19
2022-08-16T15:59:52.542Z,75.56
2022-08-16T16:09:56.291Z,77.30
2022-08-16T16:20:01.609Z,78.17
2022-08-16T16:30:11.282Z,77.87
2022-08-16T16:40:32.399Z,77.05
2022-08-16T16:50:35.209Z,78.42
2022-08-16T17:00:39.035Z,79.34
2022-08-16T17:10:45.935Z,79.96
2022-08-16T17:20:50.819Z,80.43
2022-08-16T17:30:55.209Z,81.42
2022-08-16T17:40:59.317Z,82.47
2022-08-16T17:51:01.438Z,83.58
2022-08-16T18:01:03.245Z,84.57
2022-08-16T18:11:06.055Z,86.14
2022-08-16T18:21:29.427Z,86.83
2022-08-16T18:31:31.308Z,87.78
2022-08-16T18:41:37.251Z,88.82
2022-08-16T18:51:42.631Z,89.34
2022-08-16T19:01:44.405Z,89.58
2022-08-16T19:11:46.260Z,89.70
2022-08-16T19:21:48.036Z,90.50
2022-08-16T19:31:49.778Z,90.90
2022-08-16T19:41:53.655Z,90.97
2022-08-16T19:51:55.834Z,91.16
2022-08-16T20:01:57.497Z,91.94
2022-08-16T20:12:05.090Z,92.28
2022-08-16T20:22:09.095Z,92.87
2022-08-16T20:32:12.778Z,93.93
2022-08-16T20:42:15.318Z,93.85
2022-08-16T20:52:18.682Z,93.78
2022-08-16T21:02:25.099Z,94.30
2022-08-16T21:12:27.812Z,94.87
2022-08-16T21:22:36.312Z,94.65
2022-08-16T21:32:38.017Z,94.87
2022-08-16T21:42:41.120Z,94.97
2022-08-16T21:52:42.741Z,95.71
2022-08-16T22:02:49.158Z,96.30
2022-08-16T22:12:52.943Z,96.01
2022-08-16T22:23:06.431Z,95.70
2022-08-16T22:33:09.597Z,93.91
2022-08-16T22:43:12.060Z,92.83
2022-08-16T22:53:14.512Z,92.28
2022-08-16T23:03:18.179Z,92.05
2022-08-16T23:13:21.155Z,92.23
2022-08-16T23:23:25.730Z,91.34
2022-08-16T23:33:28.873Z,90.84
2022-08-16T23:43:31.751Z,90.97
2022-08-16T23:53:34.719Z,90.21
